Time;durP1;ratioP1;P1;durP2;ratioP2;P2;SDS_P1;SDS_P2;PMS_P1;PMS_P2;Temp;Humidity;BMP_temperature;BMP_pressure;BME280_temperature;BME280_humidity;BME280_pressure;Samples;Min_cycle;Max_cycle;Signal;HPM_P1;HPM_P2
2022/10/21 00:01:22;;;;;;;;;;;15.80;99.90;;;;;;5076796;28;19931;-69
2022/10/21 00:03:50;;;;;;;;;;;15.70;99.90;;;;;;5082416;28;19932;-68
2022/10/21 00:06:16;;;;;;;;;;;15.70;99.90;;;;;;5073994;28;20018;-68
2022/10/21 00:08:43;;;;;;;;;;;15.60;99.90;;;;;;5075463;28;19929;-68
2022/10/21 00:11:10;;;;;;;;;;;15.60;99.90;;;;;;5077164;28;20396;-68
2022/10/21 00:13:37;;;;;;;;;;;15.60;99.90;;;;;;5090162;28;19930;-68
2022/10/21 00:16:05;;;;;;;;;;;15.60;99.90;;;;;;5086142;28;20374;-69
2022/10/21 00:18:33;;;;;;;;;;;15.50;99.90;;;;;;5082624;28;19931;-69
2022/10/21 00:21:04;;;;;;;;;;;15.50;99.90;;;;;;5085616;28;19925;-68
2022/10/21 00:23:31;;;;;;;;;;;15.50;99.90;;;;;;5084724;28;20471;-68
2022/10/21 00:25:59;;;;;;;;;;;15.40;99.90;;;;;;5079077;28;19931;-69
2022/10/21 00:28:26;;;;;;;;;;;15.40;99.90;;;;;;5072675;28;19924;-68
2022/10/21 00:30:54;;;;;;;;;;;15.40;99.90;;;;;;5077940;28;19924;-69
2022/10/21 00:33:21;;;;;;;;;;;15.40;99.90;;;;;;5081873;28;19928;-69
2022/10/21 00:35:50;;;;;;;;;;;15.50;99.90;;;;;;5092220;28;20440;-68
2022/10/21 00:38:19;;;;;;;;;;;15.40;99.90;;;;;;5072793;28;20438;-69
2022/10/21 00:40:46;;;;;;;;;;;15.40;99.90;;;;;;5077978;28;19924;-69
2022/10/21 00:43:13;;;;;;;;;;;15.40;99.90;;;;;;5091390;28;19978;-68
2022/10/21 00:45:40;;;;;;;;;;;15.40;99.90;;;;;;5086676;28;20007;-68
2022/10/21 00:48:14;;;;;;;;;;;15.30;99.90;;;;;;5122952;27;20404;-69
2022/10/21 00:50:42;;;;;;;;;;;15.30;99.90;;;;;;5083456;28;19932;-68
2022/10/21 00:53:10;;;;;;;;;;;15.30;99.90;;;;;;5074509;28;20299;-68
2022/10/21 00:55:40;;;;;;;;;;;15.30;99.90;;;;;;5080472;28;20375;-68
2022/10/21 00:58:07;;;;;;;;;;;15.20;99.90;;;;;;5072371;28;19931;-68
2022/10/21 01:00:34;;;;;;;;;;;15.10;99.90;;;;;;5075504;28;20290;-68
2022/10/21 01:03:01;;;;;;;;;;;15.10;99.90;;;;;;5075734;28;19931;-68
2022/10/21 01:05:27;;;;;;;;;;;15.00;99.90;;;;;;5075371;28;20378;-68
2022/10/21 01:07:54;;;;;;;;;;;14.90;99.90;;;;;;5080308;28;19924;-68
2022/10/21 01:10:21;;;;;;;;;;;14.90;99.90;;;;;;5072467;28;19931;-68
2022/10/21 01:13:07;;;;;;;;;;;14.80;99.90;;;;;;5080814;28;19924;-68
2022/10/21 01:15:36;;;;;;;;;;;14.80;99.90;;;;;;5081754;28;19925;-68
2022/10/21 01:18:08;;;;;;;;;;;14.70;99.90;;;;;;5076225;28;19925;-68
2022/10/21 01:20:44;;;;;;;;;;;14.60;99.90;;;;;;5088345;28;19924;-69
2022/10/21 01:23:28;;;;;;;;;;;14.70;99.90;;;;;;5082232;28;19931;-68
2022/10/21 01:26:13;;;;;;;;;;;14.60;99.90;;;;;;5083512;28;19931;-68
2022/10/21 01:28:49;;;;;;;;;;;14.60;99.90;;;;;;5079407;28;19924;-69
2022/10/21 01:31:20;;;;;;;;;;;14.50;99.90;;;;;;5072408;28;19931;-68
2022/10/21 01:33:49;;;;;;;;;;;14.40;99.90;;;;;;5071517;28;20405;-69
2022/10/21 01:36:29;;;;;;;;;;;14.40;99.90;;;;;;5079635;28;19924;-69
2022/10/21 01:39:01;;;;;;;;;;;14.30;99.90;;;;;;5088352;28;19932;-69
2022/10/21 01:41:28;;;;;;;;;;;14.30;99.90;;;;;;5089006;28;20011;-68
2022/10/21 01:43:57;;;;;;;;;;;14.30;99.90;;;;;;5084077;28;19930;-69
2022/10/21 01:46:27;;;;;;;;;;;14.30;99.90;;;;;;5084289;28;19999;-69
2022/10/21 01:48:56;;;;;;;;;;;14.20;99.90;;;;;;5084692;28;19924;-69
2022/10/21 01:51:23;;;;;;;;;;;14.20;99.90;;;;;;5082016;28;20387;-69
2022/10/21 01:53:51;;;;;;;;;;;14.20;99.90;;;;;;5078229;28;19931;-69
2022/10/21 01:56:18;;;;;;;;;;;14.10;99.90;;;;;;5090897;28;19924;-69
2022/10/21 01:58:47;;;;;;;;;;;14.00;99.90;;;;;;5088021;28;19947;-69
2022/10/21 02:01:14;;;;;;;;;;;13.80;99.90;;;;;;5085714;28;19924;-68
2022/10/21 02:03:43;;;;;;;;;;;13.80;99.90;;;;;;5087650;28;19934;-68
2022/10/21 02:06:12;;;;;;;;;;;13.80;99.90;;;;;;5086944;28;19936;-68
2022/10/21 02:08:40;;;;;;;;;;;13.70;99.90;;;;;;5075559;28;19924;-68
2022/10/21 02:11:07;;;;;;;;;;;13.60;99.90;;;;;;5076279;28;19924;-68
2022/10/21 02:13:37;;;;;;;;;;;13.60;99.90;;;;;;5085387;28;20055;-68
2022/10/21 02:16:07;;;;;;;;;;;13.50;99.90;;;;;;5085157;28;19924;-68
2022/10/21 02:18:33;;;;;;;;;;;13.50;99.90;;;;;;5084687;28;19924;-68
2022/10/21 02:21:03;;;;;;;;;;;13.40;99.90;;;;;;5083263;28;19928;-68
2022/10/21 02:23:33;;;;;;;;;;;13.30;99.90;;;;;;5094780;28;19924;-67
2022/10/21 02:26:00;;;;;;;;;;;13.30;99.90;;;;;;5091888;28;19928;-68
2022/10/21 02:28:27;;;;;;;;;;;13.20;99.90;;;;;;5079806;28;20290;-69
2022/10/21 02:30:59;;;;;;;;;;;13.10;99.90;;;;;;5075216;28;20015;-69
2022/10/21 02:33:32;;;;;;;;;;;13.10;99.90;;;;;;5075085;28;19924;-69
2022/10/21 02:36:04;;;;;;;;;;;13.10;99.90;;;;;;5087815;28;20395;-69
2022/10/21 02:38:33;;;;;;;;;;;13.00;99.90;;;;;;5074644;28;19934;-69
2022/10/21 02:41:01;;;;;;;;;;;12.90;99.90;;;;;;5081253;28;20379;-68
2022/10/21 02:43:30;;;;;;;;;;;12.80;99.90;;;;;;5075045;28;19934;-68
2022/10/21 02:45:59;;;;;;;;;;;12.70;99.90;;;;;;5078539;28;19924;-69
2022/10/21 02:48:26;;;;;;;;;;;12.70;99.90;;;;;;5089333;28;20007;-68
2022/10/21 02:50:53;;;;;;;;;;;12.70;99.90;;;;;;5081595;28;20007;-68
2022/10/21 02:53:19;;;;;;;;;;;12.60;99.90;;;;;;5074525;28;19931;-68
2022/10/21 02:55:47;;;;;;;;;;;12.60;99.90;;;;;;5087978;28;20430;-68
2022/10/21 02:58:14;;;;;;;;;;;12.60;99.90;;;;;;5077301;28;20264;-68
2022/10/21 03:00:41;;;;;;;;;;;12.60;99.90;;;;;;5077845;28;20414;-68
2022/10/21 03:03:07;;;;;;;;;;;12.60;99.90;;;;;;5074891;28;19931;-68
2022/10/21 03:05:34;;;;;;;;;;;12.60;99.90;;;;;;5087279;28;20015;-68
2022/10/21 03:08:00;;;;;;;;;;;12.70;99.90;;;;;;5079567;28;19928;-68
2022/10/21 03:10:27;;;;;;;;;;;12.70;99.90;;;;;;5078027;28;19970;-68
2022/10/21 03:12:55;;;;;;;;;;;12.70;99.90;;;;;;5079361;28;19990;-68
2022/10/21 03:15:22;;;;;;;;;;;12.70;99.90;;;;;;5077005;28;19924;-68
2022/10/21 03:17:48;;;;;;;;;;;12.60;99.90;;;;;;5079037;28;19947;-68
2022/10/21 03:20:15;;;;;;;;;;;12.70;99.90;;;;;;5084874;28;19925;-69
2022/10/21 03:22:42;;;;;;;;;;;12.70;99.90;;;;;;5077168;28;19931;-68
2022/10/21 03:25:09;;;;;;;;;;;12.60;99.90;;;;;;5078295;28;20307;-68
2022/10/21 03:27:36;;;;;;;;;;;12.50;99.90;;;;;;5081874;28;19946;-68
2022/10/21 03:30:05;;;;;;;;;;;12.50;99.90;;;;;;5074546;28;19932;-68
2022/10/21 03:32:32;;;;;;;;;;;12.50;99.90;;;;;;5073657;28;20007;-68
2022/10/21 03:34:58;;;;;;;;;;;12.50;99.90;;;;;;5078198;28;19924;-68
2022/10/21 03:37:25;;;;;;;;;;;12.50;99.90;;;;;;5085533;28;19924;-68
2022/10/21 03:39:52;;;;;;;;;;;12.60;99.90;;;;;;5074214;28;19934;-68
2022/10/21 03:42:18;;;;;;;;;;;12.50;99.90;;;;;;5077567;28;19929;-68
2022/10/21 03:44:45;;;;;;;;;;;12.60;99.90;;;;;;5074616;28;19939;-68
2022/10/21 03:47:13;;;;;;;;;;;12.60;99.90;;;;;;5083417;28;19935;-68
2022/10/21 03:49:40;;;;;;;;;;;12.60;99.90;;;;;;5074543;28;20003;-68
2022/10/21 03:52:07;;;;;;;;;;;12.60;99.90;;;;;;5072938;28;19931;-68
2022/10/21 03:54:34;;;;;;;;;;;12.60;99.90;;;;;;5072965;28;20383;-68
2022/10/21 03:57:00;;;;;;;;;;;11.80;99.90;;;;;;5090629;28;20352;-68
2022/10/21 03:59:27;;;;;;;;;;;12.60;99.90;;;;;;5090877;28;19924;-68
2022/10/21 04:01:54;;;;;;;;;;;12.60;99.90;;;;;;5073401;28;20028;-68
2022/10/21 04:04:22;;;;;;;;;;;12.60;99.90;;;;;;5072461;28;20020;-68
2022/10/21 04:06:48;;;;;;;;;;;12.50;99.90;;;;;;5087675;28;19924;-67
2022/10/21 04:09:15;;;;;;;;;;;12.50;99.90;;;;;;5084706;28;19932;-67
2022/10/21 04:11:42;;;;;;;;;;;12.40;99.90;;;;;;5080686;28;20416;-68
2022/10/21 04:14:08;;;;;;;;;;;12.50;99.90;;;;;;5079664;28;20589;-68
2022/10/21 04:16:35;;;;;;;;;;;12.50;99.90;;;;;;5079258;28;19925;-68
2022/10/21 04:19:02;;;;;;;;;;;12.50;99.90;;;;;;5073665;28;19924;-69
2022/10/21 04:21:30;;;;;;;;;;;12.50;99.90;;;;;;5088483;28;19930;-67
2022/10/21 04:23:56;;;;;;;;;;;12.50;99.90;;;;;;5073154;28;19925;-67
2022/10/21 04:26:23;;;;;;;;;;;12.50;99.90;;;;;;5073448;28;19930;-67
2022/10/21 04:28:50;;;;;;;;;;;12.50;99.90;;;;;;5085237;28;19931;-67
2022/10/21 04:31:16;;;;;;;;;;;12.50;99.90;;;;;;5092395;28;20377;-68
2022/10/21 04:33:43;;;;;;;;;;;12.50;99.90;;;;;;5092399;28;19924;-68
2022/10/21 04:36:09;;;;;;;;;;;12.50;99.90;;;;;;5088993;28;20011;-68
2022/10/21 04:38:37;;;;;;;;;;;12.50;99.90;;;;;;5075179;28;20020;-67
2022/10/21 04:41:04;;;;;;;;;;;12.50;99.90;;;;;;5089084;28;20417;-67
2022/10/21 04:43:31;;;;;;;;;;;12.50;99.90;;;;;;5092255;28;19931;-67
2022/10/21 04:45:57;;;;;;;;;;;12.60;99.90;;;;;;5079191;28;20065;-67
2022/10/21 04:48:24;;;;;;;;;;;12.60;99.90;;;;;;5076168;28;20485;-67
2022/10/21 04:50:52;;;;;;;;;;;12.60;99.90;;;;;;5075405;28;20015;-67
2022/10/21 04:53:18;;;;;;;;;;;12.60;99.90;;;;;;5091163;28;20387;-67
2022/10/21 04:55:49;;;;;;;;;;;12.70;99.90;;;;;;5092197;28;20018;-67
2022/10/21 04:58:16;;;;;;;;;;;12.70;99.90;;;;;;5090448;28;19924;-67
2022/10/21 05:00:43;;;;;;;;;;;12.70;99.90;;;;;;5091691;28;19924;-67
2022/10/21 05:03:09;;;;;;;;;;;12.70;99.90;;;;;;5091027;28;19930;-67
2022/10/21 05:05:36;;;;;;;;;;;12.70;99.90;;;;;;5092176;28;20377;-67
2022/10/21 05:08:03;;;;;;;;;;;12.60;99.90;;;;;;5092035;28;19930;-67
2022/10/21 05:10:29;;;;;;;;;;;12.60;99.90;;;;;;5091722;28;19931;-66
2022/10/21 05:12:58;;;;;;;;;;;12.50;99.90;;;;;;5085997;28;19925;-67
2022/10/21 05:15:24;;;;;;;;;;;12.60;99.90;;;;;;5078916;28;19928;-67
2022/10/21 05:17:51;;;;;;;;;;;12.60;99.90;;;;;;5094887;28;19924;-66
2022/10/21 05:20:18;;;;;;;;;;;12.50;99.90;;;;;;5095563;28;19924;-66
2022/10/21 05:22:45;;;;;;;;;;;12.50;99.90;;;;;;5095575;28;19924;-66
2022/10/21 05:25:11;;;;;;;;;;;12.50;99.90;;;;;;5095412;28;19936;-67
2022/10/21 05:27:38;;;;;;;;;;;12.60;99.90;;;;;;5094926;28;20314;-66
2022/10/21 05:30:07;;;;;;;;;;;12.60;99.90;;;;;;5095370;28;19924;-67
2022/10/21 05:32:34;;;;;;;;;;;12.60;99.90;;;;;;5094585;28;19924;-67
2022/10/21 05:35:01;;;;;;;;;;;12.70;99.90;;;;;;5092414;28;20018;-66
2022/10/21 05:37:27;;;;;;;;;;;12.70;99.90;;;;;;5094635;28;19947;-66
2022/10/21 05:39:54;;;;;;;;;;;12.80;99.90;;;;;;5094327;28;19931;-66
2022/10/21 05:42:21;;;;;;;;;;;12.80;99.90;;;;;;5092286;28;20381;-65
2022/10/21 05:44:48;;;;;;;;;;;12.90;99.90;;;;;;5094579;28;19971;-66
2022/10/21 05:47:16;;;;;;;;;;;12.90;99.90;;;;;;5095144;28;20262;-65
2022/10/21 05:49:42;;;;;;;;;;;12.90;99.90;;;;;;5106884;28;20014;-65
2022/10/21 05:52:09;;;;;;;;;;;12.90;99.90;;;;;;5101550;28;20007;-65
2022/10/21 05:54:36;;;;;;;;;;;12.90;99.90;;;;;;5093917;28;19930;-66
2022/10/21 05:57:02;;;;;;;;;;;12.90;99.90;;;;;;5094801;28;20007;-66
2022/10/21 05:59:29;;;;;;;;;;;13.00;99.90;;;;;;5092540;28;19924;-65
2022/10/21 06:01:55;;;;;;;;;;;12.90;99.90;;;;;;5090372;28;19950;-66
2022/10/21 06:04:24;;;;;;;;;;;13.00;99.90;;;;;;5099098;28;19924;-66
2022/10/21 06:06:50;;;;;;;;;;;12.90;99.90;;;;;;5096901;28;20025;-66
2022/10/21 06:09:17;;;;;;;;;;;13.00;99.90;;;;;;5080823;28;19924;-65
2022/10/21 06:11:43;;;;;;;;;;;13.00;99.90;;;;;;5080833;28;19954;-66
2022/10/21 06:14:10;;;;;;;;;;;13.10;99.90;;;;;;5085729;28;19932;-66
2022/10/21 06:16:37;;;;;;;;;;;13.10;99.90;;;;;;5086530;28;20018;-65
2022/10/21 06:19:03;;;;;;;;;;;13.20;99.90;;;;;;5095893;28;19924;-66
2022/10/21 06:21:31;;;;;;;;;;;13.20;99.90;;;;;;5091970;28;20018;-66
2022/10/21 06:23:58;;;;;;;;;;;13.20;99.90;;;;;;5092695;28;20733;-66
2022/10/21 06:26:25;;;;;;;;;;;13.20;99.90;;;;;;5089784;28;19978;-66
2022/10/21 06:28:51;;;;;;;;;;;13.20;99.90;;;;;;5082067;28;19924;-66
2022/10/21 06:31:20;;;;;;;;;;;13.20;99.90;;;;;;5095957;28;20038;-66
2022/10/21 06:33:47;;;;;;;;;;;13.10;99.90;;;;;;5087522;28;20295;-66
2022/10/21 06:36:13;;;;;;;;;;;13.20;99.90;;;;;;5100034;28;19934;-66
2022/10/21 06:38:42;;;;;;;;;;;13.20;99.90;;;;;;5101033;28;20267;-66
2022/10/21 06:41:09;;;;;;;;;;;13.10;99.90;;;;;;5090000;28;19924;-66
2022/10/21 06:43:36;;;;;;;;;;;13.20;99.90;;;;;;5088525;28;19974;-65
2022/10/21 06:46:03;;;;;;;;;;;13.20;99.90;;;;;;5091472;28;19924;-66
2022/10/21 06:48:30;;;;;;;;;;;13.20;99.90;;;;;;5083933;28;19981;-65
2022/10/21 06:50:57;;;;;;;;;;;13.20;99.90;;;;;;5091690;28;19925;-66
2022/10/21 06:53:24;;;;;;;;;;;13.20;99.90;;;;;;5092109;28;19942;-65
2022/10/21 06:55:59;;;;;;;;;;;13.20;99.90;;;;;;5098914;28;19924;-65
2022/10/21 06:58:25;;;;;;;;;;;13.20;99.90;;;;;;5100330;28;19923;-65
2022/10/21 07:00:52;;;;;;;;;;;13.30;99.90;;;;;;5084734;28;19930;-65
2022/10/21 07:03:19;;;;;;;;;;;13.40;99.90;;;;;;5083776;28;19928;-65
2022/10/21 07:05:45;;;;;;;;;;;13.50;99.90;;;;;;5073874;28;20364;-65
2022/10/21 07:08:12;;;;;;;;;;;13.60;99.90;;;;;;5081826;28;19931;-65
2022/10/21 07:10:41;;;;;;;;;;;13.70;99.90;;;;;;5093036;28;20458;-64
2022/10/21 07:13:09;;;;;;;;;;;13.80;99.90;;;;;;5092182;28;20260;-66
2022/10/21 07:15:35;;;;;;;;;;;13.90;99.90;;;;;;5093170;28;19925;-64
2022/10/21 07:18:02;;;;;;;;;;;14.20;99.90;;;;;;5092905;28;20225;-65
2022/10/21 07:20:29;;;;;;;;;;;14.30;99.90;;;;;;5090429;28;20167;-65
2022/10/21 07:22:55;;;;;;;;;;;14.50;99.90;;;;;;5073668;28;20027;-64
2022/10/21 07:25:22;;;;;;;;;;;14.60;99.90;;;;;;5073220;28;19931;-64
2022/10/21 07:27:49;;;;;;;;;;;14.70;99.90;;;;;;5080266;28;19999;-65
2022/10/21 07:30:17;;;;;;;;;;;14.80;99.90;;;;;;5092610;28;19952;-65
2022/10/21 07:32:44;;;;;;;;;;;14.90;99.90;;;;;;5093548;28;19924;-64
2022/10/21 07:35:10;;;;;;;;;;;15.00;99.90;;;;;;5094427;28;19946;-65
2022/10/21 07:37:37;;;;;;;;;;;15.00;99.90;;;;;;5085993;28;19924;-67
2022/10/21 07:40:07;;;;;;;;;;;15.00;99.90;;;;;;5099549;28;19924;-67
2022/10/21 07:42:34;;;;;;;;;;;15.10;99.90;;;;;;5093252;28;20026;-64
2022/10/21 07:45:02;;;;;;;;;;;15.20;99.90;;;;;;5089016;28;19958;-65
2022/10/21 07:47:30;;;;;;;;;;;15.30;99.90;;;;;;5096472;28;19931;-65
2022/10/21 07:49:56;;;;;;;;;;;15.40;99.90;;;;;;5090166;28;19924;-66
2022/10/21 07:52:23;;;;;;;;;;;15.50;99.90;;;;;;5089749;28;19924;-65
2022/10/21 07:54:50;;;;;;;;;;;15.50;99.90;;;;;;5089634;28;20337;-65
2022/10/21 07:57:16;;;;;;;;;;;15.50;99.90;;;;;;5090744;28;20018;-66
2022/10/21 07:59:43;;;;;;;;;;;15.60;99.90;;;;;;5085632;28;19939;-66
2022/10/21 08:02:12;;;;;;;;;;;15.70;99.90;;;;;;5101267;28;20006;-65
2022/10/21 08:04:40;;;;;;;;;;;15.80;99.90;;;;;;5084218;28;19930;-66
2022/10/21 08:07:06;;;;;;;;;;;15.80;99.90;;;;;;5087655;28;20305;-66
2022/10/21 08:09:33;;;;;;;;;;;15.90;99.90;;;;;;5093297;28;19925;-65
2022/10/21 08:12:00;;;;;;;;;;;15.90;99.90;;;;;;5092123;28;20302;-66
2022/10/21 08:14:26;;;;;;;;;;;16.00;99.90;;;;;;5106762;28;20383;-66
2022/10/21 08:16:53;;;;;;;;;;;16.00;99.90;;;;;;5079765;28;19924;-66
2022/10/21 08:19:23;;;;;;;;;;;16.10;99.90;;;;;;5083902;28;19936;-66
2022/10/21 08:21:51;;;;;;;;;;;16.10;99.90;;;;;;5085878;28;19924;-66
2022/10/21 08:24:18;;;;;;;;;;;16.10;99.90;;;;;;5083915;28;19924;-66
2022/10/21 08:26:44;;;;;;;;;;;16.10;99.90;;;;;;5085445;28;20027;-66
2022/10/21 08:29:11;;;;;;;;;;;16.20;99.90;;;;;;5083607;28;20314;-66
2022/10/21 08:31:38;;;;;;;;;;;16.20;99.90;;;;;;5084181;28;20934;-66
2022/10/21 08:34:05;;;;;;;;;;;16.20;99.90;;;;;;5089869;28;20270;-66
2022/10/21 08:36:31;;;;;;;;;;;16.20;99.90;;;;;;5082534;28;19928;-66
2022/10/21 08:39:00;;;;;;;;;;;16.20;99.90;;;;;;5088299;28;19924;-66
2022/10/21 08:41:44;;;;;;;;;;;16.20;99.90;;;;;;5087664;28;20034;-66
2022/10/21 08:44:17;;;;;;;;;;;16.30;99.90;;;;;;5082471;28;19970;-66
2022/10/21 08:46:46;;;;;;;;;;;16.30;99.90;;;;;;5099462;28;19924;-65
2022/10/21 08:49:16;;;;;;;;;;;16.40;99.90;;;;;;5089635;28;20028;-66
2022/10/21 08:51:45;;;;;;;;;;;16.80;99.90;;;;;;5087258;28;20303;-66
2022/10/21 08:54:15;;;;;;;;;;;16.90;99.90;;;;;;5089487;28;19924;-66
2022/10/21 08:56:41;;;;;;;;;;;17.10;99.90;;;;;;5087019;28;19938;-66
2022/10/21 08:59:16;;;;;;;;;;;17.30;99.90;;;;;;5088561;28;20022;-67
2022/10/21 09:01:46;;;;;;;;;;;17.40;99.90;;;;;;5089201;28;20009;-66
2022/10/21 09:04:16;;;;;;;;;;;17.80;99.90;;;;;;5086219;28;19930;-66
2022/10/21 09:06:45;;;;;;;;;;;17.80;99.90;;;;;;5097661;28;19964;-66
2022/10/21 09:09:17;;;;;;;;;;;18.40;99.90;;;;;;5086014;28;22020;-66
2022/10/21 09:11:50;;;;;;;;;;;19.40;99.90;;;;;;5112030;28;19924;-66
2022/10/21 09:14:40;;;;;;;;;;;19.60;99.90;;;;;;5081352;28;19924;-66
2022/10/21 09:17:13;;;;;;;;;;;19.10;99.90;;;;;;5086185;28;19925;-65
2022/10/21 09:19:44;;;;;;;;;;;18.70;99.90;;;;;;5091183;28;19931;-65
2022/10/21 09:22:22;;;;;;;;;;;18.40;99.90;;;;;;5089645;28;19924;-65
2022/10/21 09:24:52;;;;;;;;;;;18.10;99.90;;;;;;5077888;28;19932;-65
2022/10/21 09:27:19;;;;;;;;;;;18.00;99.90;;;;;;5082767;28;19928;-65
2022/10/21 09:29:49;;;;;;;;;;;17.80;99.90;;;;;;5085883;28;20376;-65
2022/10/21 09:32:18;;;;;;;;;;;17.70;99.90;;;;;;5089069;28;19931;-65
2022/10/21 09:34:47;;;;;;;;;;;17.60;99.90;;;;;;5087968;28;19924;-65
2022/10/21 09:37:17;;;;;;;;;;;17.70;99.90;;;;;;5092139;28;19924;-66
2022/10/21 09:39:47;;;;;;;;;;;17.70;99.90;;;;;;5088827;28;20368;-65
2022/10/21 09:42:15;;;;;;;;;;;17.70;99.90;;;;;;5084330;28;19924;-65
2022/10/21 09:44:44;;;;;;;;;;;17.80;99.90;;;;;;5079388;28;19983;-65
2022/10/21 09:47:17;;;;;;;;;;;17.80;99.90;;;;;;5082869;28;20011;-64
2022/10/21 09:49:46;;;;;;;;;;;18.00;99.90;;;;;;5089994;28;20162;-65
2022/10/21 09:52:13;;;;;;;;;;;17.90;99.90;;;;;;5091218;28;19924;-67
2022/10/21 09:54:41;;;;;;;;;;;18.00;99.90;;;;;;5090974;28;19924;-65
2022/10/21 09:57:12;;;;;;;;;;;18.00;99.90;;;;;;5093720;28;19923;-65
2022/10/21 09:59:51;;;;;;;;;;;18.00;99.90;;;;;;5081368;28;19931;-65
2022/10/21 10:02:22;;;;;;;;;;;18.00;99.90;;;;;;5102697;28;20300;-65
2022/10/21 10:04:49;;;;;;;;;;;18.20;99.90;;;;;;5086738;28;19924;-65
2022/10/21 10:07:20;;;;;;;;;;;18.20;99.90;;;;;;5087946;28;19924;-65
2022/10/21 10:09:47;;;;;;;;;;;18.30;99.90;;;;;;5088228;28;19928;-66
2022/10/21 10:12:14;;;;;;;;;;;18.20;99.90;;;;;;5090218;28;19924;-65
2022/10/21 10:14:42;;;;;;;;;;;18.20;99.90;;;;;;5096661;28;19955;-64
2022/10/21 10:17:21;;;;;;;;;;;18.20;99.90;;;;;;5097661;28;19931;-65
2022/10/21 10:20:07;;;;;;;;;;;18.20;99.90;;;;;;5089171;28;19924;-65
2022/10/21 10:22:36;;;;;;;;;;;18.20;99.90;;;;;;5093458;28;19924;-66
2022/10/21 10:25:09;;;;;;;;;;;18.40;99.90;;;;;;5094229;28;19973;-65
2022/10/21 10:27:36;;;;;;;;;;;18.30;99.90;;;;;;5094660;28;19924;-65
2022/10/21 10:30:03;;;;;;;;;;;18.40;99.90;;;;;;5094242;28;20006;-65
2022/10/21 10:32:33;;;;;;;;;;;18.30;99.90;;;;;;5087803;28;19924;-65
2022/10/21 10:35:02;;;;;;;;;;;18.40;99.90;;;;;;5093911;28;19969;-65
2022/10/21 10:37:30;;;;;;;;;;;18.50;99.90;;;;;;5092413;28;20046;-66
2022/10/21 10:39:57;;;;;;;;;;;18.60;99.90;;;;;;5095653;28;19924;-66
2022/10/21 10:42:25;;;;;;;;;;;18.50;99.90;;;;;;5096078;28;19923;-67
2022/10/21 10:44:53;;;;;;;;;;;18.50;99.90;;;;;;5073857;28;19993;-65
2022/10/21 10:47:22;;;;;;;;;;;18.40;99.90;;;;;;5074157;28;19987;-65
2022/10/21 10:49:50;;;;;;;;;;;18.40;99.90;;;;;;5085083;28;19924;-66
2022/10/21 10:52:20;;;;;;;;;;;18.50;99.90;;;;;;5093287;28;19924;-66
2022/10/21 10:54:47;;;;;;;;;;;18.60;99.90;;;;;;5090211;28;19924;-65
2022/10/21 10:57:15;;;;;;;;;;;18.60;99.90;;;;;;5099560;28;20042;-65
2022/10/21 10:59:43;;;;;;;;;;;18.60;99.90;;;;;;5092797;28;19930;-66
2022/10/21 11:02:17;;;;;;;;;;;18.70;99.90;;;;;;5092079;28;20958;-65
2022/10/21 11:04:48;;;;;;;;;;;18.80;99.90;;;;;;5087311;28;19924;-65
2022/10/21 11:07:21;;;;;;;;;;;18.80;99.90;;;;;;5092288;28;19935;-66
2022/10/21 11:09:49;;;;;;;;;;;19.00;99.90;;;;;;5089776;28;19955;-66
2022/10/21 11:12:19;;;;;;;;;;;18.90;99.90;;;;;;5090231;28;19934;-65
2022/10/21 11:14:49;;;;;;;;;;;18.70;99.90;;;;;;5095515;28;19994;-66
2022/10/21 11:17:16;;;;;;;;;;;18.70;99.90;;;;;;5092713;28;19936;-65
2022/10/21 11:19:45;;;;;;;;;;;18.90;99.90;;;;;;5085859;28;19924;-65
2022/10/21 11:22:15;;;;;;;;;;;19.00;99.90;;;;;;5089211;28;20374;-65
2022/10/21 11:25:01;;;;;;;;;;;19.10;99.90;;;;;;5082254;28;19924;-65
2022/10/21 11:27:44;;;;;;;;;;;19.10;99.90;;;;;;5077002;28;20276;-66
2022/10/21 11:30:12;;;;;;;;;;;19.10;99.90;;;;;;5096267;28;20027;-66
2022/10/21 11:32:45;;;;;;;;;;;19.30;99.90;;;;;;5089412;28;19924;-66
2022/10/21 11:35:16;;;;;;;;;;;19.20;99.90;;;;;;5093096;28;19924;-66
2022/10/21 11:37:55;;;;;;;;;;;19.20;99.90;;;;;;5094177;28;19932;-66
2022/10/21 11:40:27;;;;;;;;;;;19.20;99.90;;;;;;5092928;28;20268;-66
2022/10/21 11:42:56;;;;;;;;;;;19.40;99.90;;;;;;5092799;28;20007;-66
2022/10/21 11:45:40;;;;;;;;;;;19.50;99.90;;;;;;5088567;28;20398;-66
2022/10/21 11:48:15;;;;;;;;;;;19.70;99.90;;;;;;5082672;28;19924;-65
2022/10/21 11:50:46;;;;;;;;;;;19.80;99.90;;;;;;5080907;28;20010;-66
2022/10/21 11:53:25;;;;;;;;;;;19.80;99.90;;;;;;5088594;28;19970;-66
2022/10/21 11:55:58;;;;;;;;;;;19.90;99.90;;;;;;5083907;28;19970;-68
2022/10/21 11:58:32;;;;;;;;;;;19.90;99.90;;;;;;5073742;28;20011;-66
2022/10/21 12:01:05;;;;;;;;;;;19.90;99.90;;;;;;5085853;28;19924;-67
2022/10/21 12:03:40;;;;;;;;;;;20.00;99.90;;;;;;5072551;28;20019;-66
2022/10/21 12:06:12;;;;;;;;;;;19.80;99.90;;;;;;5088867;28;20366;-66
2022/10/21 12:08:43;;;;;;;;;;;19.70;99.90;;;;;;5092627;28;20432;-66
2022/10/21 12:11:12;;;;;;;;;;;19.80;99.90;;;;;;5088902;28;19924;-66
2022/10/21 12:13:42;;;;;;;;;;;19.90;99.90;;;;;;5078788;28;19926;-67
2022/10/21 12:16:10;;;;;;;;;;;19.90;99.90;;;;;;5092760;28;19954;-66
2022/10/21 12:18:40;;;;;;;;;;;19.80;99.90;;;;;;5085417;28;19932;-66
2022/10/21 12:21:10;;;;;;;;;;;19.90;99.90;;;;;;5087937;28;20465;-67
2022/10/21 12:23:37;;;;;;;;;;;19.90;99.90;;;;;;5094981;28;19930;-66
2022/10/21 12:26:09;;;;;;;;;;;20.00;99.90;;;;;;5087313;28;19924;-67
2022/10/21 12:28:37;;;;;;;;;;;20.00;99.90;;;;;;5088854;28;19932;-67
2022/10/21 12:31:12;;;;;;;;;;;20.00;99.90;;;;;;5081259;28;20395;-66
2022/10/21 12:33:41;;;;;;;;;;;20.00;99.90;;;;;;5078671;28;19968;-67
2022/10/21 12:36:14;;;;;;;;;;;20.10;99.90;;;;;;5083519;28;20417;-69
2022/10/21 12:38:46;;;;;;;;;;;20.00;99.90;;;;;;5095096;28;20368;-68
2022/10/21 12:41:30;;;;;;;;;;;20.10;99.90;;;;;;5087746;28;19924;-67
2022/10/21 12:44:03;;;;;;;;;;;20.20;99.90;;;;;;5088715;28;19934;-67
2022/10/21 12:46:35;;;;;;;;;;;20.20;99.90;;;;;;5084551;28;19924;-67
2022/10/21 12:49:04;;;;;;;;;;;20.10;99.90;;;;;;5085078;28;19924;-67
2022/10/21 12:51:32;;;;;;;;;;;20.20;99.90;;;;;;5089464;28;19985;-67
2022/10/21 12:54:05;;;;;;;;;;;20.20;99.90;;;;;;5092493;28;19935;-69
2022/10/21 12:56:34;;;;;;;;;;;20.20;99.90;;;;;;5098330;28;19970;-69
2022/10/21 12:59:03;;;;;;;;;;;20.20;99.90;;;;;;5088369;28;19971;-69
2022/10/21 13:01:36;;;;;;;;;;;20.40;99.90;;;;;;5083752;28;19950;-69
2022/10/21 13:04:02;;;;;;;;;;;20.40;99.90;;;;;;5084272;28;20001;-70
2022/10/21 13:06:50;;;;;;;;;;;20.50;99.90;;;;;;5089194;28;19924;-70
2022/10/21 13:09:36;;;;;;;;;;;20.70;99.90;;;;;;5092689;28;19928;-69
2022/10/21 13:12:04;;;;;;;;;;;20.80;99.90;;;;;;5096387;28;20015;-69
2022/10/21 13:14:39;;;;;;;;;;;20.70;99.90;;;;;;5081818;28;20015;-69
2022/10/21 13:17:24;;;;;;;;;;;20.70;99.90;;;;;;5082354;28;19932;-68
2022/10/21 13:19:52;;;;;;;;;;;20.60;99.90;;;;;;5077503;28;20463;-69
2022/10/21 13:22:20;;;;;;;;;;;20.70;99.90;;;;;;5083461;28;20015;-68
2022/10/21 13:24:48;;;;;;;;;;;20.80;99.90;;;;;;5073672;28;20271;-69
2022/10/21 13:27:26;;;;;;;;;;;20.80;99.90;;;;;;5071579;28;19928;-67
2022/10/21 13:29:53;;;;;;;;;;;20.80;99.90;;;;;;5084176;28;19998;-66
2022/10/21 13:32:25;;;;;;;;;;;20.90;99.90;;;;;;5085504;28;19928;-68
2022/10/21 13:34:59;;;;;;;;;;;20.90;99.90;;;;;;5080374;28;19946;-65
2022/10/21 13:37:28;;;;;;;;;;;20.80;99.90;;;;;;5084418;28;19925;-66
2022/10/21 13:39:55;;;;;;;;;;;20.80;99.90;;;;;;5077672;28;19924;-68
2022/10/21 13:42:22;;;;;;;;;;;20.80;99.90;;;;;;5091990;28;19930;-67
2022/10/21 13:44:51;;;;;;;;;;;20.80;99.90;;;;;;5080832;28;19924;-66
2022/10/21 13:47:19;;;;;;;;;;;20.80;99.90;;;;;;5088970;28;19947;-68
2022/10/21 13:49:50;;;;;;;;;;;20.70;99.90;;;;;;5104336;28;19928;-67
2022/10/21 13:52:18;;;;;;;;;;;20.70;99.90;;;;;;5087620;28;20402;-67
2022/10/21 13:54:45;;;;;;;;;;;20.80;99.90;;;;;;5087401;28;19930;-68
2022/10/21 13:57:15;;;;;;;;;;;20.80;99.90;;;;;;5089434;28;19960;-69
2022/10/21 13:59:42;;;;;;;;;;;20.70;99.90;;;;;;5091240;28;20010;-69
2022/10/21 14:02:22;;;;;;;;;;;20.70;99.90;;;;;;5076490;28;19963;-68
2022/10/21 14:04:49;;;;;;;;;;;20.70;99.90;;;;;;5078805;28;19924;-67
2022/10/21 14:07:18;;;;;;;;;;;20.80;99.90;;;;;;5080176;28;20279;-68
2022/10/21 14:09:47;;;;;;;;;;;20.80;99.90;;;;;;5081075;22;19928;-67
2022/10/21 14:12:19;;;;;;;;;;;20.90;99.90;;;;;;5068318;28;19935;-68
2022/10/21 14:14:46;;;;;;;;;;;21.00;99.90;;;;;;5074239;28;20407;-67
2022/10/21 14:17:16;;;;;;;;;;;20.90;99.90;;;;;;5072793;28;19952;-68
2022/10/21 14:19:46;;;;;;;;;;;20.90;99.90;;;;;;5074438;28;19931;-69
2022/10/21 14:22:19;;;;;;;;;;;20.80;99.90;;;;;;5070531;28;19983;-69
2022/10/21 14:24:52;;;;;;;;;;;20.80;99.90;;;;;;5070258;28;19931;-68
2022/10/21 14:27:21;;;;;;;;;;;20.80;99.90;;;;;;5067119;28;19933;-66